Time;durP1;ratioP1;P1;durP2;ratioP2;P2;SDS_P1;SDS_P2;PMS_P1;PMS_P2;Temp;Humidity;BMP_temperature;BMP_pressure;BME280_temperature;BME280_humidity;BME280_pressure;Samples;Min_cycle;Max_cycle;Signal;HPM_P1;HPM_P2
2022/02/02 00:00:49;;;;;;;20.40;7.63;;;;;;;;;;5095810;28;20016;-35
2022/02/02 00:03:17;;;;;;;14.45;7.22;;;;;;;;;;5095637;28;20028;-35
2022/02/02 00:08:18;;;;;;;17.30;7.07;;;;;;;;;;5095420;28;20032;-35
2022/02/02 00:16:22;;;;;;;15.65;6.55;;;;;;;;;;5095344;28;20064;-35
2022/02/02 00:19:01;;;;;;;14.82;6.70;;;;;;;;;;5095243;28;20096;-35
2022/02/02 00:21:39;;;;;;;11.70;5.95;;;;;;;;;;5094250;28;20020;-35
2022/02/02 00:24:15;;;;;;;14.07;5.97;;;;;;;;;;5095302;28;20027;-35
2022/02/02 00:26:43;;;;;;;15.10;6.00;;;;;;;;;;5093713;28;20386;-34
2022/02/02 00:29:15;;;;;;;17.60;6.15;;;;;;;;;;5095318;28;20374;-35
2022/02/02 00:31:46;;;;;;;17.08;6.22;;;;;;;;;;5094006;28;20024;-35
2022/02/02 00:34:16;;;;;;;16.85;6.55;;;;;;;;;;5093896;28;20031;-35
2022/02/02 00:39:10;;;;;;;16.80;5.97;;;;;;;;;;5094919;28;20026;-35
2022/02/02 00:41:35;;;;;;;13.10;5.63;;;;;;;;;;5095124;28;20028;-34
2022/02/02 00:44:02;;;;;;;15.65;6.32;;;;;;;;;;5093717;28;20024;-35
2022/02/02 00:46:29;;;;;;;15.38;5.90;;;;;;;;;;5093625;28;20463;-34
2022/02/02 00:49:00;;;;;;;14.60;5.53;;;;;;;;;;5093590;28;20055;-35
2022/02/02 00:51:41;;;;;;;14.18;5.53;;;;;;;;;;5094870;28;20141;-35
2022/02/02 00:54:06;;;;;;;20.02;5.53;;;;;;;;;;5094772;28;20032;-35
2022/02/02 00:56:32;;;;;;;12.85;5.45;;;;;;;;;;5094492;28;20493;-35
2022/02/02 00:58:57;;;;;;;13.30;5.72;;;;;;;;;;5094586;28;20021;-35
2022/02/02 01:01:23;;;;;;;18.17;5.50;;;;;;;;;;5094760;28;20031;-35
2022/02/02 01:03:48;;;;;;;14.30;5.07;;;;;;;;;;5093259;28;20094;-34
2022/02/02 01:06:17;;;;;;;20.08;5.70;;;;;;;;;;5093084;28;20117;-34
2022/02/02 01:19:04;;;;;;;17.15;7.05;;;;;;;;;;5093235;28;20028;-34
2022/02/02 01:21:43;;;;;;;17.92;6.57;;;;;;;;;;5094291;28;20467;-34
2022/02/02 01:29:36;;;;;;;17.25;7.43;;;;;;;;;;5094188;28;20081;-34
2022/02/02 01:32:01;;;;;;;23.75;8.27;;;;;;;;;;5092868;28;20020;-34
2022/02/02 01:34:27;;;;;;;29.40;8.50;;;;;;;;;;5092450;28;20486;-35
2022/02/02 01:36:52;;;;;;;18.08;8.57;;;;;;;;;;5093937;28;20024;-35
2022/02/02 01:39:18;;;;;;;22.63;8.77;;;;;;;;;;5093935;28;20062;-34
2022/02/02 01:41:45;;;;;;;20.10;8.93;;;;;;;;;;5092430;28;20035;-35
2022/02/02 01:44:30;;;;;;;22.15;8.85;;;;;;;;;;5093998;28;20161;-34
2022/02/02 01:46:56;;;;;;;18.70;8.48;;;;;;;;;;5093896;28;20056;-34
2022/02/02 01:52:20;;;;;;;17.27;7.30;;;;;;;;;;5093679;28;20024;-39
2022/02/02 01:57:32;;;;;;;20.90;7.80;;;;;;;;;;5093752;28;20046;-35
2022/02/02 01:59:57;;;;;;;20.88;9.05;;;;;;;;;;5093256;28;20026;-34
2022/02/02 02:02:23;;;;;;;17.67;7.90;;;;;;;;;;5093558;28;20020;-35
2022/02/02 02:04:48;;;;;;;19.50;8.88;;;;;;;;;;5093260;28;20042;-35
2022/02/02 02:07:13;;;;;;;20.95;8.35;;;;;;;;;;5093538;28;20439;-35
2022/02/02 02:09:39;;;;;;;19.98;7.95;;;;;;;;;;5093501;28;20077;-34
2022/02/02 02:12:05;;;;;;;22.13;8.93;;;;;;;;;;5093356;28;20103;-34
2022/02/02 02:17:02;;;;;;;19.85;9.05;;;;;;;;;;5093384;28;20024;-35
2022/02/02 02:19:28;;;;;;;25.75;9.40;;;;;;;;;;5091854;28;20359;-35
2022/02/02 02:21:54;;;;;;;27.83;9.30;;;;;;;;;;5092410;28;20452;-34
2022/02/02 02:24:19;;;;;;;22.52;8.80;;;;;;;;;;5093286;28;20095;-34
2022/02/02 02:26:45;;;;;;;22.88;9.98;;;;;;;;;;5093336;28;20048;-34
2022/02/02 02:34:31;;;;;;;23.48;9.73;;;;;;;;;;5093011;28;20064;-34
2022/02/02 02:56:16;;;;;;;28.45;11.82;;;;;;;;;;5092751;28;20042;-34
2022/02/02 02:59:05;;;;;;;29.10;11.40;;;;;;;;;;5092886;28;20103;-34
2022/02/02 03:02:44;;;;;;;38.47;12.30;;;;;;;;;;5092316;28;20070;-34
2022/02/02 03:50:53;;;;;;;25.40;10.48;;;;;;;;;;5096100;28;20027;-34
2022/02/02 03:58:48;;;;;;;27.25;8.90;;;;;;;;;;5095286;28;20027;-34
2022/02/02 04:01:23;;;;;;;18.67;8.75;;;;;;;;;;5095378;28;20012;-35
2022/02/02 04:06:22;;;;;;;22.95;9.10;;;;;;;;;;5095581;28;20032;-34
2022/02/02 04:08:48;;;;;;;25.67;8.57;;;;;;;;;;5095678;28;20020;-35
2022/02/02 04:11:26;;;;;;;21.65;8.40;;;;;;;;;;5095722;28;20027;-34
2022/02/02 05:04:48;;;;;;;21.15;7.57;;;;;;;;;;5094478;28;20024;-34
2022/02/02 05:07:41;;;;;;;22.40;7.68;;;;;;;;;;5094115;28;20493;-34
2022/02/02 05:18:12;;;;;;;18.70;7.78;;;;;;;;;;5094156;28;19927;-35
2022/02/02 05:53:22;;;;;;;23.67;8.88;;;;;;;;;;5092942;28;20056;-34
2022/02/02 05:55:49;;;;;;;20.48;8.02;;;;;;;;;;5093274;28;20070;-35
2022/02/02 05:58:14;;;;;;;22.55;8.70;;;;;;;;;;5091786;28;20024;-35
2022/02/02 06:00:40;;;;;;;20.40;8.93;;;;;;;;;;5092642;28;20022;-34
2022/02/02 06:03:09;;;;;;;24.58;9.05;;;;;;;;;;5093246;28;20043;-35
2022/02/02 06:05:35;;;;;;;24.13;9.82;;;;;;;;;;5092339;28;20016;-34
2022/02/02 06:08:02;;;;;;;27.77;10.98;;;;;;;;;;5093079;28;20032;-34
2022/02/02 06:10:28;;;;;;;22.85;9.70;;;;;;;;;;5092640;28;20016;-35
2022/02/02 06:12:55;;;;;;;27.98;10.13;;;;;;;;;;5092629;28;20189;-34
2022/02/02 06:15:21;;;;;;;25.52;10.18;;;;;;;;;;5091379;28;20039;-34
2022/02/02 06:17:50;;;;;;;23.20;10.07;;;;;;;;;;5092688;28;20024;-34
2022/02/02 06:20:16;;;;;;;31.88;12.38;;;;;;;;;;5092280;28;20386;-35
2022/02/02 06:22:42;;;;;;;24.52;11.43;;;;;;;;;;5092371;28;20039;-35
2022/02/02 06:25:16;;;;;;;30.85;11.65;;;;;;;;;;5091415;28;20073;-34
2022/02/02 06:27:43;;;;;;;23.77;9.85;;;;;;;;;;5090898;28;20030;-35
2022/02/02 06:30:09;;;;;;;21.67;9.77;;;;;;;;;;5091177;28;20081;-35
2022/02/02 06:32:40;;;;;;;24.08;9.90;;;;;;;;;;5090407;28;20032;-35
2022/02/02 06:35:06;;;;;;;28.20;10.95;;;;;;;;;;5092510;28;20063;-34
2022/02/02 06:37:31;;;;;;;24.00;10.57;;;;;;;;;;5089606;28;20125;-36
2022/02/02 06:39:57;;;;;;;29.27;10.32;;;;;;;;;;5112215;28;20049;-35
2022/02/02 06:42:22;;;;;;;26.38;11.63;;;;;;;;;;5094539;28;20012;-35
2022/02/02 06:44:48;;;;;;;28.75;12.18;;;;;;;;;;5110804;28;20470;-39
2022/02/02 06:47:13;;;;;;;33.78;13.43;;;;;;;;;;5110961;28;20087;-34
2022/02/02 06:49:41;;;;;;;31.48;11.43;;;;;;;;;;5111408;28;20015;-35
2022/02/02 06:52:13;;;;;;;28.27;10.80;;;;;;;;;;5093750;28;20019;-35
2022/02/02 06:54:51;;;;;;;25.33;10.07;;;;;;;;;;5108442;28;20024;-35
2022/02/02 06:57:23;;;;;;;21.30;9.10;;;;;;;;;;5112370;28;20020;-35
2022/02/02 07:10:12;;;;;;;21.83;10.10;;;;;;;;;;5100924;28;20039;-35
2022/02/02 07:15:26;;;;;;;22.13;8.95;;;;;;;;;;5106944;28;20424;-40
2022/02/02 07:21:01;;;;;;;21.30;8.70;;;;;;;;;;5107163;28;20068;-35
2022/02/02 07:23:58;;;;;;;14.73;6.88;;;;;;;;;;5101084;28;20020;-35
2022/02/02 07:31:51;;;;;;;21.45;8.85;;;;;;;;;;5113607;28;20023;-34
2022/02/02 07:34:23;;;;;;;13.00;6.45;;;;;;;;;;5110067;28;20434;-35
2022/02/02 07:36:49;;;;;;;15.90;6.93;;;;;;;;;;5096667;28;20058;-37
2022/02/02 07:39:15;;;;;;;17.02;6.45;;;;;;;;;;5087943;28;20028;-39
2022/02/02 07:41:46;;;;;;;14.80;7.32;;;;;;;;;;5113385;28;20028;-35
2022/02/02 07:44:22;;;;;;;17.00;8.02;;;;;;;;;;5094295;28;20032;-35
2022/02/02 07:46:50;;;;;;;18.38;6.30;;;;;;;;;;5113736;28;20022;-34
2022/02/02 07:49:16;;;;;;;10.63;5.75;;;;;;;;;;5094321;28;20435;-38
2022/02/02 07:51:42;;;;;;;10.60;5.85;;;;;;;;;;5112248;28;20107;-37
2022/02/02 07:54:18;;;;;;;12.02;5.85;;;;;;;;;;5112352;28;20139;-34
2022/02/02 07:56:46;;;;;;;10.05;5.05;;;;;;;;;;5113148;28;20080;-36
2022/02/02 08:01:42;;;;;;;15.15;7.15;;;;;;;;;;5112978;28;20019;-38
2022/02/02 08:04:07;;;;;;;15.50;7.88;;;;;;;;;;5112327;28;20031;-36
2022/02/02 08:06:35;;;;;;;10.82;5.30;;;;;;;;;;5106648;28;20023;-35
2022/02/02 08:09:00;;;;;;;14.25;6.30;;;;;;;;;;5109218;28;20110;-36
2022/02/02 08:11:30;;;;;;;12.80;6.78;;;;;;;;;;5096721;28;20127;-35
2022/02/02 08:13:59;;;;;;;10.85;5.68;;;;;;;;;;5113160;28;20102;-37
2022/02/02 08:16:25;;;;;;;14.20;6.03;;;;;;;;;;5113248;28;20035;-35
2022/02/02 08:18:52;;;;;;;11.70;6.13;;;;;;;;;;5094690;28;20051;-35
2022/02/02 08:21:18;;;;;;;19.48;8.10;;;;;;;;;;5093167;28;20545;-35
2022/02/02 08:23:44;;;;;;;12.30;5.90;;;;;;;;;;5090043;28;20016;-41
2022/02/02 08:26:14;;;;;;;16.35;6.28;;;;;;;;;;5110495;27;20413;-35
2022/02/02 08:28:39;;;;;;;11.35;5.72;;;;;;;;;;5110336;28;20022;-35
2022/02/02 08:31:05;;;;;;;12.23;6.03;;;;;;;;;;5088259;28;20032;-35
2022/02/02 08:33:34;;;;;;;15.02;6.00;;;;;;;;;;5106819;28;20020;-36
2022/02/02 08:36:02;;;;;;;;;;;;;;;;;;5102206;28;20048;-38
2022/02/02 08:43:54;;;;;;;13.80;6.22;;;;;;;;;;5082339;28;20040;-36
2022/02/02 08:46:33;;;;;;;13.40;5.70;;;;;;;;;;5099595;28;20080;-40
2022/02/02 08:48:59;;;;;;;13.48;5.10;;;;;;;;;;5084755;28;20036;-37
2022/02/02 08:51:29;;;;;;;10.95;5.07;;;;;;;;;;5099340;28;20035;-35
2022/02/02 08:59:00;;;;;;;12.38;5.30;;;;;;;;;;5098053;28;20117;-32
2022/02/02 09:01:29;;;;;;;10.82;5.65;;;;;;;;;;5079861;28;20081;-34
2022/02/02 09:06:39;;;;;;;11.10;4.65;;;;;;;;;;5102154;27;20398;-35
2022/02/02 09:09:14;;;;;;;9.75;5.15;;;;;;;;;;5093384;28;20031;-34
2022/02/02 09:25:33;;;;;;;9.52;5.35;;;;;;;;;;5113984;28;20034;-35
2022/02/02 09:36:11;;;;;;;9.88;3.72;;;;;;;;;;5104040;28;20075;-34
2022/02/02 09:38:36;;;;;;;6.60;3.40;;;;;;;;;;5086371;28;20062;-35
2022/02/02 09:43:34;;;;;;;7.38;2.75;;;;;;;;;;5108683;28;20019;-35
2022/02/02 09:46:08;;;;;;;6.97;2.65;;;;;;;;;;5105797;27;20027;-37
2022/02/02 09:48:56;;;;;;;8.43;2.60;;;;;;;;;;5088422;28;20031;-33
2022/02/02 09:51:28;;;;;;;8.32;2.65;;;;;;;;;;5103473;28;20098;-33
2022/02/02 09:54:06;;;;;;;5.22;2.05;;;;;;;;;;5092161;28;20020;-34
2022/02/02 10:04:16;;;;;;;5.28;2.28;;;;;;;;;;5112191;28;20024;-33
2022/02/02 10:06:53;;;;;;;11.48;2.60;;;;;;;;;;5112149;28;20024;-34
2022/02/02 10:16:45;;;;;;;5.63;2.45;;;;;;;;;;5102527;28;20387;-45
2022/02/02 10:19:11;;;;;;;6.85;2.72;;;;;;;;;;5094813;28;20442;-39
2022/02/02 10:21:37;;;;;;;6.78;3.70;;;;;;;;;;5108511;28;20107;-33
2022/02/02 10:24:02;;;;;;;5.63;2.55;;;;;;;;;;5079932;28;20030;-33
2022/02/02 10:26:27;;;;;;;9.93;2.40;;;;;;;;;;5099367;28;20020;-34
2022/02/02 10:28:53;;;;;;;6.18;2.42;;;;;;;;;;5090972;28;20335;-33
2022/02/02 10:31:18;;;;;;;2.65;1.42;;;;;;;;;;5106414;28;20027;-34
2022/02/02 10:33:44;;;;;;;3.83;1.95;;;;;;;;;;5073795;28;20024;-34
2022/02/02 10:36:17;;;;;;;5.22;2.20;;;;;;;;;;5098526;28;20040;-33
2022/02/02 10:38:50;;;;;;;5.45;2.15;;;;;;;;;;5093477;28;20028;-34
2022/02/02 10:41:29;;;;;;;3.53;1.70;;;;;;;;;;5111775;28;20076;-33
2022/02/02 10:44:00;;;;;;;2.60;1.67;;;;;;;;;;5112453;28;20089;-33
2022/02/02 10:49:04;;;;;;;3.45;1.95;;;;;;;;;;5110642;28;20028;-35
2022/02/02 10:51:39;;;;;;;6.28;1.85;;;;;;;;;;5093812;28;20074;-38
2022/02/02 10:56:52;;;;;;;3.80;2.00;;;;;;;;;;5106735;28;20114;-33
2022/02/02 10:59:33;;;;;;;3.15;1.65;;;;;;;;;;5097373;28;20454;-34
2022/02/02 11:07:14;;;;;;;4.28;1.80;;;;;;;;;;5116846;28;20035;-33
2022/02/02 11:09:41;;;;;;;5.45;1.50;;;;;;;;;;5116370;28;20016;-33
2022/02/02 11:12:08;;;;;;;2.72;1.25;;;;;;;;;;5116356;28;20019;-33
2022/02/02 11:14:39;;;;;;;2.83;1.38;;;;;;;;;;5110904;28;20046;-34
2022/02/02 11:17:04;;;;;;;2.88;1.20;;;;;;;;;;5095137;28;20031;-32
2022/02/02 11:19:31;;;;;;;5.97;1.67;;;;;;;;;;5094344;28;20462;-32
2022/02/02 11:22:20;;;;;;;3.72;2.13;;;;;;;;;;5095955;28;20258;-34
2022/02/02 11:24:45;;;;;;;7.07;2.45;;;;;;;;;;5106846;28;20031;-33
2022/02/02 11:27:30;;;;;;;6.15;2.38;;;;;;;;;;5092393;28;20020;-34
2022/02/02 11:29:56;;;;;;;4.88;1.88;;;;;;;;;;5102283;28;20072;-32
2022/02/02 11:32:21;;;;;;;6.22;1.50;;;;;;;;;;5082122;28;20431;-32
2022/02/02 11:34:46;;;;;;;1.90;1.10;;;;;;;;;;5108130;28;20020;-33
2022/02/02 11:37:12;;;;;;;5.00;1.52;;;;;;;;;;5090041;28;20051;-32
2022/02/02 11:40:01;;;;;;;5.60;1.63;;;;;;;;;;5108049;28;20016;-32
2022/02/02 11:43:06;;;;;;;3.90;1.80;;;;;;;;;;5091159;28;20477;-33
2022/02/02 11:45:51;;;;;;;3.20;1.40;;;;;;;;;;5108625;28;20432;-33
2022/02/02 11:48:35;;;;;;;6.38;1.60;;;;;;;;;;5105052;28;20027;-33
2022/02/02 11:51:02;;;;;;;2.67;1.40;;;;;;;;;;5106378;28;20020;-33
2022/02/02 11:53:45;;;;;;;3.83;1.63;;;;;;;;;;5101883;28;20050;-33
2022/02/02 11:56:11;;;;;;;7.90;2.25;;;;;;;;;;5104098;28;20039;-33
2022/02/02 11:58:37;;;;;;;36.42;3.55;;;;;;;;;;5103134;28;20020;-34
2022/02/02 12:06:40;;;;;;;4.70;1.27;;;;;;;;;;5098402;28;20081;-34
2022/02/02 12:47:25;;;;;;;6.05;1.40;;;;;;;;;;5101988;28;20085;-34
2022/02/02 13:02:59;;;;;;;7.32;1.38;;;;;;;;;;5104115;28;20420;-35
2022/02/02 13:05:24;;;;;;;11.68;1.60;;;;;;;;;;5095044;28;20024;-34
2022/02/02 13:07:52;;;;;;;4.85;1.25;;;;;;;;;;5109760;28;20052;-34
2022/02/02 13:10:21;;;;;;;6.30;1.15;;;;;;;;;;5077224;28;20061;-39
2022/02/02 13:12:53;;;;;;;6.65;1.40;;;;;;;;;;5105339;28;20020;-41
2022/02/02 13:18:27;;;;;;;4.47;1.30;;;;;;;;;;5109191;28;20034;-34
2022/02/02 13:25:55;;;;;;;3.42;1.30;;;;;;;;;;5105522;28;20024;-33
2022/02/02 13:28:39;;;;;;;6.10;1.20;;;;;;;;;;5077721;28;20098;-34
2022/02/02 13:31:05;;;;;;;3.90;1.55;;;;;;;;;;5099106;28;20028;-33
2022/02/02 13:33:35;;;;;;;5.95;1.92;;;;;;;;;;5099555;28;20024;-33
2022/02/02 13:36:12;;;;;;;8.30;1.73;;;;;;;;;;5089061;28;20043;-34
2022/02/02 13:44:46;;;;;;;7.13;1.30;;;;;;;;;;5099872;28;20046;-37
2022/02/02 13:47:38;;;;;;;4.75;1.10;;;;;;;;;;5084616;28;20120;-33
2022/02/02 13:50:24;;;;;;;5.10;1.13;;;;;;;;;;5106502;28;20447;-34
2022/02/02 13:55:48;;;;;;;10.00;1.52;;;;;;;;;;5110986;28;20043;-34
2022/02/02 14:01:13;;;;;;;2.67;1.10;;;;;;;;;;5107523;28;20526;-34
2022/02/02 14:33:11;;;;;;;8.38;1.20;;;;;;;;;;5105869;28;20088;-37
2022/02/02 14:35:36;;;;;;;6.07;1.23;;;;;;;;;;5106812;28;20146;-34
2022/02/02 14:38:04;;;;;;;2.15;0.82;;;;;;;;;;5091824;28;20474;-35
2022/02/02 14:40:45;;;;;;;5.43;1.10;;;;;;;;;;5072380;28;20459;-34
2022/02/02 14:43:13;;;;;;;11.63;1.60;;;;;;;;;;5105939;28;20508;-35
2022/02/02 14:45:44;;;;;;;2.58;1.27;;;;;;;;;;5105862;28;20473;-36
2022/02/02 14:48:20;;;;;;;8.27;2.00;;;;;;;;;;5105870;28;20069;-34
2022/02/02 14:51:35;;;;;;;7.72;1.80;;;;;;;;;;5088274;28;20463;-34
2022/02/02 14:54:14;;;;;;;5.43;1.75;;;;;;;;;;5091773;28;20097;-35
2022/02/02 14:56:53;;;;;;;6.43;2.08;;;;;;;;;;5097609;28;20062;-34
2022/02/02 15:29:13;;;;;;;4.00;1.40;;;;;;;;;;5103825;28;20024;-46
2022/02/02 15:31:40;;;;;;;7.15;1.30;;;;;;;;;;5104444;28;20023;-40
2022/02/02 15:34:11;;;;;;;5.07;1.40;;;;;;;;;;5086464;28;20015;-38
2022/02/02 15:37:19;;;;;;;5.05;1.17;;;;;;;;;;5103684;28;20138;-37
2022/02/02 15:39:24;;;;;;;1.95;1.02;;;;;;;;;;5102722;28;20110;-35
2022/02/02 16:03:05;;;;;;;6.75;1.50;;;;;;;;;;5114076;28;20481;-35
2022/02/02 16:05:41;;;;;;;5.03;1.38;;;;;;;;;;5115596;28;20024;-35
2022/02/02 16:08:09;;;;;;;1.92;1.20;;;;;;;;;;5096242;28;20027;-37
2022/02/02 16:10:50;;;;;;;3.35;1.50;;;;;;;;;;5095181;28;20043;-35
2022/02/02 16:13:31;;;;;;;5.68;1.52;;;;;;;;;;5114536;28;20023;-35
2022/02/02 16:16:03;;;;;;;11.05;2.50;;;;;;;;;;5114453;28;20039;-35
2022/02/02 16:18:40;;;;;;;4.07;1.85;;;;;;;;;;5096045;28;20019;-34
2022/02/02 16:34:47;;;;;;;4.85;2.42;;;;;;;;;;5114062;28;20103;-34
2022/02/02 16:37:16;;;;;;;9.60;3.05;;;;;;;;;;5113938;28;20445;-34
2022/02/02 16:39:52;;;;;;;8.47;3.67;;;;;;;;;;5114245;28;20570;-35
2022/02/02 16:45:02;;;;;;;43.13;9.55;;;;;;;;;;5113777;28;20112;-35
2022/02/02 16:47:27;;;;;;;49.65;10.38;;;;;;;;;;5086791;28;20038;-35
2022/02/02 16:49:53;;;;;;;32.72;9.95;;;;;;;;;;5076364;28;20016;-35
2022/02/02 16:52:23;;;;;;;44.53;8.23;;;;;;;;;;5076415;28;20031;-35
2022/02/02 16:54:48;;;;;;;33.90;6.60;;;;;;;;;;5097296;28;20031;-35
2022/02/02 17:24:42;;;;;;;7.35;2.05;;;;;;;;;;5113083;28;20022;-37
2022/02/02 17:35:20;;;;;;;4.65;2.03;;;;;;;;;;5113689;28;20418;-35
2022/02/02 17:38:00;;;;;;;4.30;1.50;;;;;;;;;;5112057;28;20131;-35
2022/02/02 18:20:06;;;;;;;4.20;2.00;;;;;;;;;;5093354;28;20020;-35
2022/02/02 18:22:38;;;;;;;6.63;2.03;;;;;;;;;;5091930;28;20016;-34
2022/02/02 18:25:11;;;;;;;3.95;1.52;;;;;;;;;;5093037;28;20024;-35
2022/02/02 18:27:48;;;;;;;4.13;1.65;;;;;;;;;;5091618;28;20027;-35
2022/02/02 18:32:50;;;;;;;5.88;2.10;;;;;;;;;;5093256;28;20020;-34
2022/02/02 18:35:19;;;;;;;7.55;2.55;;;;;;;;;;5092928;28;20035;-35
2022/02/02 18:42:01;;;;;;;5.55;1.63;;;;;;;;;;5093100;28;20034;-34
2022/02/02 18:44:11;;;;;;;4.95;1.80;;;;;;;;;;5089786;28;20386;-34
2022/02/02 18:48:59;;;;;;;5.18;2.03;;;;;;;;;;5093068;28;20025;-34
2022/02/02 18:54:06;;;;;;;7.13;2.15;;;;;;;;;;5093044;28;20020;-34
2022/02/02 19:31:12;;;;;;;7.68;3.50;;;;;;;;;;5096564;28;20031;-35
2022/02/02 19:53:16;;;;;;;13.00;3.92;;;;;;;;;;5095990;28;20055;-34
2022/02/02 19:55:42;;;;;;;12.55;3.92;;;;;;;;;;5095811;28;20089;-34
2022/02/02 20:06:37;;;;;;;9.40;3.05;;;;;;;;;;5096018;28;20061;-34
2022/02/02 20:11:40;;;;;;;9.07;2.78;;;;;;;;;;5095564;28;20585;-34
2022/02/02 20:14:06;;;;;;;5.53;2.22;;;;;;;;;;5095219;28;20414;-35
2022/02/02 20:16:31;;;;;;;9.13;2.40;;;;;;;;;;5095572;28;20046;-34
2022/02/02 20:18:59;;;;;;;7.55;2.38;;;;;;;;;;5095643;28;20044;-34
2022/02/02 20:21:29;;;;;;;6.60;2.60;;;;;;;;;;5095559;28;20482;-35
2022/02/02 20:23:54;;;;;;;12.38;3.47;;;;;;;;;;5093549;28;20095;-34
2022/02/02 20:26:22;;;;;;;6.82;1.90;;;;;;;;;;5095274;28;20028;-34
2022/02/02 20:28:48;;;;;;;6.47;1.77;;;;;;;;;;5095039;28;20020;-34
2022/02/02 20:31:14;;;;;;;11.85;3.08;;;;;;;;;;5094212;28;20020;-34
2022/02/02 20:33:39;;;;;;;10.43;2.40;;;;;;;;;;5095385;28;20024;-34
2022/02/02 20:36:05;;;;;;;5.75;2.05;;;;;;;;;;5094870;28;20059;-34
2022/02/02 20:38:31;;;;;;;12.65;2.67;;;;;;;;;;5093863;28;20512;-34
2022/02/02 20:40:56;;;;;;;13.50;3.05;;;;;;;;;;5095073;28;20117;-35
2022/02/02 20:43:35;;;;;;;12.85;2.92;;;;;;;;;;5094898;28;20028;-34
2022/02/02 21:10:04;;;;;;;5.85;2.03;;;;;;;;;;5094591;28;20020;-34
2022/02/02 21:15:19;;;;;;;5.32;2.42;;;;;;;;;;5094553;28;20032;-34
2022/02/02 21:17:45;;;;;;;8.02;2.13;;;;;;;;;;5094464;28;20031;-34
2022/02/02 21:22:47;;;;;;;6.13;2.03;;;;;;;;;;5094345;28;20020;-34
2022/02/02 21:28:01;;;;;;;9.10;2.33;;;;;;;;;;5094226;28;20046;-34
2022/02/02 21:30:27;;;;;;;7.30;2.75;;;;;;;;;;5092870;28;20454;-34
2022/02/02 21:32:52;;;;;;;12.40;2.78;;;;;;;;;;5094163;28;20024;-34
2022/02/02 21:35:18;;;;;;;11.68;2.60;;;;;;;;;;5093564;28;20107;-34
2022/02/02 21:37:49;;;;;;;6.32;2.25;;;;;;;;;;5091684;28;20076;-34
2022/02/02 21:40:21;;;;;;;7.35;2.50;;;;;;;;;;5092553;28;20069;-34
2022/02/02 21:42:48;;;;;;;10.13;2.40;;;;;;;;;;5092612;28;20524;-34
2022/02/02 21:45:13;;;;;;;7.53;2.55;;;;;;;;;;5093856;28;20111;-34
2022/02/02 21:47:39;;;;;;;13.10;2.53;;;;;;;;;;5092475;28;20443;-34
2022/02/02 21:50:09;;;;;;;11.85;2.40;;;;;;;;;;5093550;28;20073;-35
2022/02/02 21:52:35;;;;;;;9.20;2.40;;;;;;;;;;5092588;28;20470;-34
2022/02/02 21:55:00;;;;;;;6.00;2.28;;;;;;;;;;5093718;28;20020;-34
2022/02/02 21:57:25;;;;;;;8.55;2.33;;;;;;;;;;5093632;28;20086;-34
2022/02/02 21:59:50;;;;;;;5.93;2.13;;;;;;;;;;5092393;28;20088;-34
2022/02/02 22:02:16;;;;;;;7.78;2.25;;;;;;;;;;5093861;28;20465;-34
2022/02/02 22:04:41;;;;;;;8.13;2.38;;;;;;;;;;5093296;28;20024;-35
2022/02/02 22:07:06;;;;;;;7.55;2.90;;;;;;;;;;5093609;28;20170;-34
2022/02/02 22:09:32;;;;;;;6.22;2.38;;;;;;;;;;5092528;28;20024;-34
2022/02/02 22:11:57;;;;;;;9.10;2.20;;;;;;;;;;5093498;28;20020;-35
2022/02/02 22:14:23;;;;;;;9.63;2.03;;;;;;;;;;5093388;28;20019;-34
2022/02/02 22:16:50;;;;;;;6.07;2.08;;;;;;;;;;5093397;28;20036;-34
2022/02/02 22:19:16;;;;;;;8.55;2.40;;;;;;;;;;5093706;28;20439;-34
2022/02/02 22:21:41;;;;;;;5.55;2.08;;;;;;;;;;5091807;28;20012;-34
2022/02/02 22:24:06;;;;;;;7.05;2.50;;;;;;;;;;5093727;28;20857;-34
2022/02/02 22:26:34;;;;;;;8.23;2.65;;;;;;;;;;5093319;28;20020;-34
2022/02/02 22:28:59;;;;;;;6.30;2.35;;;;;;;;;;5093071;28;20030;-34
2022/02/02 22:31:25;;;;;;;9.57;2.42;;;;;;;;;;5091938;28;20016;-34
2022/02/02 22:33:50;;;;;;;6.32;2.13;;;;;;;;;;5091834;28;20046;-34
2022/02/02 22:36:17;;;;;;;10.45;2.47;;;;;;;;;;5092809;28;20097;-34
2022/02/02 22:38:44;;;;;;;5.22;1.92;;;;;;;;;;5093056;28;20028;-34
2022/02/02 22:41:09;;;;;;;5.60;1.90;;;;;;;;;;5091894;28;20035;-34
2022/02/02 22:43:42;;;;;;;8.02;1.88;;;;;;;;;;5092354;28;20024;-34
2022/02/02 22:46:07;;;;;;;4.38;1.85;;;;;;;;;;5091787;28;20036;-34
2022/02/02 22:48:34;;;;;;;5.50;1.70;;;;;;;;;;5092672;28;20094;-34
2022/02/02 22:50:59;;;;;;;8.43;1.83;;;;;;;;;;5092657;28;20097;-34
2022/02/02 22:53:26;;;;;;;6.88;2.15;;;;;;;;;;5093205;28;20450;-34
2022/02/02 22:55:51;;;;;;;9.48;2.03;;;;;;;;;;5091602;28;20372;-34
2022/02/02 22:58:16;;;;;;;4.38;1.90;;;;;;;;;;5093010;28;20099;-34
2022/02/02 23:00:42;;;;;;;6.75;1.90;;;;;;;;;;5092939;28;20024;-34
2022/02/02 23:03:14;;;;;;;8.65;1.88;;;;;;;;;;5092717;28;20020;-34
2022/02/02 23:05:43;;;;;;;6.85;1.65;;;;;;;;;;5091540;28;20028;-34
2022/02/02 23:08:10;;;;;;;4.88;1.63;;;;;;;;;;5091584;28;20518;-34
2022/02/02 23:10:36;;;;;;;8.50;1.80;;;;;;;;;;5092536;28;20028;-35
2022/02/02 23:13:02;;;;;;;5.38;1.95;;;;;;;;;;5092924;28;20051;-34
2022/02/02 23:15:43;;;;;;;5.60;2.05;;;;;;;;;;5092705;28;20489;-34
2022/02/02 23:18:20;;;;;;;3.58;2.00;;;;;;;;;;5092542;28;20020;-34
2022/02/02 23:20:49;;;;;;;8.48;1.88;;;;;;;;;;5091418;28;20020;-34
2022/02/02 23:23:18;;;;;;;8.57;2.00;;;;;;;;;;5092761;28;20632;-34
2022/02/02 23:25:44;;;;;;;;;;;;;;;;;;5093075;28;20070;-34
2022/02/02 23:28:11;;;;;;;6.30;1.60;;;;;;;;;;5091432;28;19947;-33
2022/02/02 23:30:37;;;;;;;4.47;1.65;;;;;;;;;;5092288;28;20027;-34
2022/02/02 23:33:03;;;;;;;5.97;1.80;;;;;;;;;;5092808;28;20031;-34
2022/02/02 23:35:29;;;;;;;4.03;1.50;;;;;;;;;;5092276;28;20015;-35
2022/02/02 23:37:54;;;;;;;4.80;1.80;;;;;;;;;;5092590;28;20016;-34
2022/02/02 23:40:19;;;;;;;4.97;1.65;;;;;;;;;;5092538;28;20024;-34
2022/02/02 23:42:45;;;;;;;6.80;1.98;;;;;;;;;;5092472;28;20379;-34
2022/02/02 23:45:10;;;;;;;9.73;2.00;;;;;;;;;;5092237;28;20482;-35
2022/02/02 23:47:39;;;;;;;6.82;1.52;;;;;;;;;;5092439;28;20024;-34
2022/02/02 23:50:09;;;;;;;8.32;2.00;;;;;;;;;;5092567;28;20047;-34
2022/02/02 23:52:52;;;;;;;5.60;1.92;;;;;;;;;;5092549;28;20478;-34
2022/02/02 23:55:25;;;;;;;10.57;1.83;;;;;;;;;;5092249;28;20028;-34
2022/02/02 23:58:21;;;;;;;7.13;2.20;;;;;;;;;;5090853;28;20028;-34
